sensor_id;sensor_type;location;lat;lon;timestamp;pressure;altitude;pressure_sealevel;temperature;humidity
38806;BME280;25635;51.146;17.162;2023-10-08T00:01:15;100019.23;;;10.82;89.84
38806;BME280;25635;51.146;17.162;2023-10-08T00:03:45;100028.30;;;10.80;89.90
38806;BME280;25635;51.146;17.162;2023-10-08T00:06:20;100033.02;;;10.78;90.07
38806;BME280;25635;51.146;17.162;2023-10-08T00:08:50;100039.16;;;10.76;90.32
38806;BME280;25635;51.146;17.162;2023-10-08T00:11:17;100037.80;;;10.73;90.36
38806;BME280;25635;51.146;17.162;2023-10-08T00:13:43;100036.08;;;10.71;90.46
38806;BME280;25635;51.146;17.162;2023-10-08T00:16:11;100025.98;;;10.69;90.42
38806;BME280;25635;51.146;17.162;2023-10-08T00:18:41;100018.14;;;10.68;90.43
38806;BME280;25635;51.146;17.162;2023-10-08T00:21:15;100024.08;;;10.67;90.34
38806;BME280;25635;51.146;17.162;2023-10-08T00:23:42;100028.26;;;10.68;90.47
38806;BME280;25635;51.146;17.162;2023-10-08T00:26:09;100024.95;;;10.67;90.40
38806;BME280;25635;51.146;17.162;2023-10-08T00:28:35;100027.75;;;10.67;90.27
38806;BME280;25635;51.146;17.162;2023-10-08T00:31:02;100033.52;;;10.66;90.26
38806;BME280;25635;51.146;17.162;2023-10-08T00:33:38;100043.11;;;10.64;90.22
38806;BME280;25635;51.146;17.162;2023-10-08T00:36:10;100054.41;;;10.67;90.53
38806;BME280;25635;51.146;17.162;2023-10-08T00:38:47;100056.17;;;10.67;90.25
38806;BME280;25635;51.146;17.162;2023-10-08T00:41:17;100045.34;;;10.68;90.17
38806;BME280;25635;51.146;17.162;2023-10-08T00:43:50;100048.16;;;10.65;90.18
38806;BME280;25635;51.146;17.162;2023-10-08T00:46:17;100041.55;;;10.64;90.01
38806;BME280;25635;51.146;17.162;2023-10-08T00:48:51;100036.00;;;10.61;90.02
38806;BME280;25635;51.146;17.162;2023-10-08T00:51:24;100036.04;;;10.58;89.99
38806;BME280;25635;51.146;17.162;2023-10-08T00:54:01;100036.60;;;10.54;90.16
38806;BME280;25635;51.146;17.162;2023-10-08T00:56:34;100026.71;;;10.49;90.13
38806;BME280;25635;51.146;17.162;2023-10-08T00:59:18;100030.37;;;10.50;90.32
38806;BME280;25635;51.146;17.162;2023-10-08T01:01:49;100038.39;;;10.50;90.21
38806;BME280;25635;51.146;17.162;2023-10-08T01:04:25;100034.04;;;10.49;90.18
38806;BME280;25635;51.146;17.162;2023-10-08T01:07:03;100038.91;;;10.50;90.29
38806;BME280;25635;51.146;17.162;2023-10-08T01:09:42;100040.11;;;10.52;90.19
38806;BME280;25635;51.146;17.162;2023-10-08T01:12:19;100029.98;;;10.54;90.23
38806;BME280;25635;51.146;17.162;2023-10-08T01:14:45;100032.95;;;10.53;90.17
38806;BME280;25635;51.146;17.162;2023-10-08T01:17:14;100029.30;;;10.51;90.29
38806;BME280;25635;51.146;17.162;2023-10-08T01:19:45;100023.25;;;10.48;90.22
38806;BME280;25635;51.146;17.162;2023-10-08T01:22:38;100014.37;;;10.47;90.38
38806;BME280;25635;51.146;17.162;2023-10-08T01:25:05;100007.41;;;10.46;90.49
38806;BME280;25635;51.146;17.162;2023-10-08T01:27:31;100016.84;;;10.44;90.61
38806;BME280;25635;51.146;17.162;2023-10-08T01:30:01;100031.65;;;10.44;90.72
38806;BME280;25635;51.146;17.162;2023-10-08T01:32:46;100036.52;;;10.44;90.86
38806;BME280;25635;51.146;17.162;2023-10-08T01:35:12;100039.80;;;10.47;90.94
38806;BME280;25635;51.146;17.162;2023-10-08T01:37:50;100042.95;;;10.47;90.82
38806;BME280;25635;51.146;17.162;2023-10-08T01:40:17;100050.45;;;10.45;90.73
38806;BME280;25635;51.146;17.162;2023-10-08T01:42:43;100053.15;;;10.38;90.64
38806;BME280;25635;51.146;17.162;2023-10-08T01:45:09;100048.00;;;10.29;90.34
38806;BME280;25635;51.146;17.162;2023-10-08T01:47:39;100051.33;;;10.23;90.41
38806;BME280;25635;51.146;17.162;2023-10-08T01:50:05;100051.20;;;10.19;90.42
38806;BME280;25635;51.146;17.162;2023-10-08T01:52:37;100055.59;;;10.14;90.59
38806;BME280;25635;51.146;17.162;2023-10-08T01:55:06;100065.38;;;10.11;90.77
38806;BME280;25635;51.146;17.162;2023-10-08T01:57:37;100078.81;;;10.08;90.97
38806;BME280;25635;51.146;17.162;2023-10-08T02:00:05;100085.27;;;10.06;91.21
38806;BME280;25635;51.146;17.162;2023-10-08T02:02:33;100092.08;;;10.04;91.19
38806;BME280;25635;51.146;17.162;2023-10-08T02:04:59;100091.20;;;10.06;91.40
38806;BME280;25635;51.146;17.162;2023-10-08T02:07:25;100081.95;;;10.07;91.32
38806;BME280;25635;51.146;17.162;2023-10-08T02:09:51;100081.05;;;10.10;91.33
38806;BME280;25635;51.146;17.162;2023-10-08T02:12:18;100093.92;;;10.13;91.34
38806;BME280;25635;51.146;17.162;2023-10-08T02:14:44;100102.43;;;10.18;91.24
38806;BME280;25635;51.146;17.162;2023-10-08T02:17:10;100103.48;;;10.17;90.90
38806;BME280;25635;51.146;17.162;2023-10-08T02:19:38;100094.05;;;10.18;91.00
38806;BME280;25635;51.146;17.162;2023-10-08T02:22:07;100081.50;;;10.21;91.07
38806;BME280;25635;51.146;17.162;2023-10-08T02:24:36;100093.48;;;10.27;91.26
38806;BME280;25635;51.146;17.162;2023-10-08T02:27:03;100125.36;;;10.30;91.09
38806;BME280;25635;51.146;17.162;2023-10-08T02:29:30;100144.87;;;10.31;90.88
38806;BME280;25635;51.146;17.162;2023-10-08T02:31:57;100153.41;;;10.31;90.90
38806;BME280;25635;51.146;17.162;2023-10-08T02:34:23;100150.77;;;10.33;90.85
38806;BME280;25635;51.146;17.162;2023-10-08T02:36:49;100160.90;;;10.31;90.81
38806;BME280;25635;51.146;17.162;2023-10-08T02:39:15;100181.11;;;10.27;90.68
38806;BME280;25635;51.146;17.162;2023-10-08T02:41:49;100182.34;;;10.25;90.93
38806;BME280;25635;51.146;17.162;2023-10-08T02:44:18;100184.79;;;10.24;90.87
38806;BME280;25635;51.146;17.162;2023-10-08T02:46:48;100184.27;;;10.22;91.01
38806;BME280;25635;51.146;17.162;2023-10-08T02:49:15;100183.77;;;10.22;90.99
38806;BME280;25635;51.146;17.162;2023-10-08T02:51:52;100171.25;;;10.19;91.01
38806;BME280;25635;51.146;17.162;2023-10-08T02:54:20;100171.41;;;10.20;91.14
38806;BME280;25635;51.146;17.162;2023-10-08T02:56:50;100174.72;;;10.21;91.25
38806;BME280;25635;51.146;17.162;2023-10-08T02:59:33;100179.77;;;10.21;91.05
38806;BME280;25635;51.146;17.162;2023-10-08T03:02:06;100195.42;;;10.24;91.18
38806;BME280;25635;51.146;17.162;2023-10-08T03:04:41;100193.00;;;10.22;91.06
38806;BME280;25635;51.146;17.162;2023-10-08T03:07:08;100196.84;;;10.21;90.99
38806;BME280;25635;51.146;17.162;2023-10-08T03:09:37;100199.62;;;10.22;90.91
38806;BME280;25635;51.146;17.162;2023-10-08T03:12:08;100195.08;;;10.24;90.87
38806;BME280;25635;51.146;17.162;2023-10-08T03:14:34;100194.37;;;10.24;90.79
38806;BME280;25635;51.146;17.162;2023-10-08T03:17:13;100193.48;;;10.26;90.76
38806;BME280;25635;51.146;17.162;2023-10-08T03:19:48;100191.57;;;10.27;90.77
38806;BME280;25635;51.146;17.162;2023-10-08T03:22:14;100191.39;;;10.27;90.64
38806;BME280;25635;51.146;17.162;2023-10-08T03:24:45;100201.16;;;10.26;90.79
38806;BME280;25635;51.146;17.162;2023-10-08T03:27:14;100207.79;;;10.26;90.69
38806;BME280;25635;51.146;17.162;2023-10-08T03:29:46;100211.09;;;10.24;90.79
38806;BME280;25635;51.146;17.162;2023-10-08T03:32:14;100213.70;;;10.26;90.88
38806;BME280;25635;51.146;17.162;2023-10-08T03:34:44;100230.95;;;10.25;90.92
38806;BME280;25635;51.146;17.162;2023-10-08T03:37:17;100238.65;;;10.23;91.00
38806;BME280;25635;51.146;17.162;2023-10-08T03:39:47;100232.56;;;10.19;90.93
38806;BME280;25635;51.146;17.162;2023-10-08T03:42:24;100239.57;;;10.15;91.07
38806;BME280;25635;51.146;17.162;2023-10-08T03:44:50;100245.84;;;10.16;91.21
38806;BME280;25635;51.146;17.162;2023-10-08T03:47:18;100245.30;;;10.18;91.33
38806;BME280;25635;51.146;17.162;2023-10-08T03:49:48;100249.98;;;10.20;91.36
38806;BME280;25635;51.146;17.162;2023-10-08T03:52:17;100262.72;;;10.19;91.20
38806;BME280;25635;51.146;17.162;2023-10-08T03:54:48;100270.39;;;10.16;91.30
38806;BME280;25635;51.146;17.162;2023-10-08T03:57:14;100265.70;;;10.15;91.39
38806;BME280;25635;51.146;17.162;2023-10-08T03:59:51;100261.02;;;10.13;91.27
38806;BME280;25635;51.146;17.162;2023-10-08T04:02:20;100260.83;;;10.12;91.50
38806;BME280;25635;51.146;17.162;2023-10-08T04:04:57;100263.10;;;10.12;91.31
38806;BME280;25635;51.146;17.162;2023-10-08T04:07:24;100264.14;;;10.12;91.30
38806;BME280;25635;51.146;17.162;2023-10-08T04:09:56;100278.95;;;10.12;91.27
38806;BME280;25635;51.146;17.162;2023-10-08T04:12:35;100284.52;;;10.13;91.23
38806;BME280;25635;51.146;17.162;2023-10-08T04:15:06;100283.83;;;10.14;91.28
38806;BME280;25635;51.146;17.162;2023-10-08T04:17:38;100281.21;;;10.13;91.25
38806;BME280;25635;51.146;17.162;2023-10-08T04:20:17;100285.05;;;10.12;91.21
38806;BME280;25635;51.146;17.162;2023-10-08T04:23:00;100272.34;;;10.10;91.19
38806;BME280;25635;51.146;17.162;2023-10-08T04:25:26;100264.85;;;10.09;91.32
38806;BME280;25635;51.146;17.162;2023-10-08T04:27:56;100241.16;;;10.08;91.20
38806;BME280;25635;51.146;17.162;2023-10-08T04:30:33;100237.17;;;10.05;91.14
38806;BME280;25635;51.146;17.162;2023-10-08T04:33:00;100255.65;;;10.00;91.10
38806;BME280;25635;51.146;17.162;2023-10-08T04:35:46;100266.32;;;9.93;91.28
38806;BME280;25635;51.146;17.162;2023-10-08T04:38:23;100272.44;;;9.88;91.32
38806;BME280;25635;51.146;17.162;2023-10-08T04:40:52;100282.02;;;9.83;91.50
38806;BME280;25635;51.146;17.162;2023-10-08T04:43:21;100293.70;;;9.83;91.81
38806;BME280;25635;51.146;17.162;2023-10-08T04:46:00;100289.52;;;9.80;92.04
38806;BME280;25635;51.146;17.162;2023-10-08T04:48:46;100292.67;;;9.78;92.10
38806;BME280;25635;51.146;17.162;2023-10-08T04:51:12;100298.09;;;9.78;92.16
38806;BME280;25635;51.146;17.162;2023-10-08T04:53:41;100310.79;;;9.77;92.41
38806;BME280;25635;51.146;17.162;2023-10-08T04:56:11;100314.27;;;9.78;92.42
38806;BME280;25635;51.146;17.162;2023-10-08T04:58:44;100322.27;;;9.79;92.41
38806;BME280;25635;51.146;17.162;2023-10-08T05:01:14;100325.05;;;9.82;92.53
38806;BME280;25635;51.146;17.162;2023-10-08T05:03:54;100313.55;;;9.83;92.48
38806;BME280;25635;51.146;17.162;2023-10-08T05:06:20;100325.74;;;9.83;92.47
38806;BME280;25635;51.146;17.162;2023-10-08T05:09:15;100337.42;;;9.82;92.53
38806;BME280;25635;51.146;17.162;2023-10-08T05:11:49;100352.73;;;9.83;92.62
38806;BME280;25635;51.146;17.162;2023-10-08T05:14:24;100365.45;;;9.83;92.73
38806;BME280;25635;51.146;17.162;2023-10-08T05:17:00;100375.02;;;9.83;92.79
38806;BME280;25635;51.146;17.162;2023-10-08T05:19:30;100376.77;;;9.84;92.72
38806;BME280;25635;51.146;17.162;2023-10-08T05:22:16;100374.66;;;9.87;92.78
38806;BME280;25635;51.146;17.162;2023-10-08T05:24:55;100383.02;;;9.89;92.81
38806;BME280;25635;51.146;17.162;2023-10-08T05:27:41;100392.95;;;9.91;92.93
38806;BME280;25635;51.146;17.162;2023-10-08T05:30:15;100403.92;;;9.93;92.89
38806;BME280;25635;51.146;17.162;2023-10-08T05:32:43;100410.88;;;9.94;92.74
38806;BME280;25635;51.146;17.162;2023-10-08T05:35:32;100412.78;;;9.98;92.74
38806;BME280;25635;51.146;17.162;2023-10-08T05:38:04;100418.18;;;10.00;92.76
38806;BME280;25635;51.146;17.162;2023-10-08T05:40:44;100419.05;;;10.01;92.73
38806;BME280;25635;51.146;17.162;2023-10-08T05:43:31;100426.71;;;10.04;92.81
38806;BME280;25635;51.146;17.162;2023-10-08T05:46:11;100439.60;;;10.06;92.79
38806;BME280;25635;51.146;17.162;2023-10-08T05:49:04;100452.66;;;10.09;92.79
38806;BME280;25635;51.146;17.162;2023-10-08T05:51:34;100462.41;;;10.10;92.61
38806;BME280;25635;51.146;17.162;2023-10-08T05:54:14;100466.42;;;10.11;92.53
38806;BME280;25635;51.146;17.162;2023-10-08T05:56:53;100463.11;;;10.12;92.41
38806;BME280;25635;51.146;17.162;2023-10-08T05:59:42;100467.11;;;10.14;92.29
38806;BME280;25635;51.146;17.162;2023-10-08T06:02:21;100478.10;;;10.14;92.35
38806;BME280;25635;51.146;17.162;2023-10-08T06:05:04;100486.45;;;10.15;92.22
38806;BME280;25635;51.146;17.162;2023-10-08T06:07:46;100489.08;;;10.11;92.08
38806;BME280;25635;51.146;17.162;2023-10-08T06:15:52;100503.36;;;10.04;92.15
38806;BME280;25635;51.146;17.162;2023-10-08T06:18:32;100508.23;;;10.05;92.27
38806;BME280;25635;51.146;17.162;2023-10-08T06:21:03;100521.31;;;10.06;92.10
38806;BME280;25635;51.146;17.162;2023-10-08T06:23:38;100519.55;;;10.06;91.98
38806;BME280;25635;51.146;17.162;2023-10-08T06:26:04;100530.71;;;10.08;92.07
38806;BME280;25635;51.146;17.162;2023-10-08T06:28:50;100534.01;;;10.09;91.96
38806;BME280;25635;51.146;17.162;2023-10-08T06:31:23;100543.60;;;10.12;91.84
38806;BME280;25635;51.146;17.162;2023-10-08T06:33:50;100547.77;;;10.12;91.60
38806;BME280;25635;51.146;17.162;2023-10-08T06:36:16;100552.66;;;10.09;91.18
38806;BME280;25635;51.146;17.162;2023-10-08T06:38:44;100561.38;;;10.10;91.32
38806;BME280;25635;51.146;17.162;2023-10-08T06:41:14;100566.59;;;10.11;91.06
38806;BME280;25635;51.146;17.162;2023-10-08T06:43:45;100574.45;;;10.13;90.87
38806;BME280;25635;51.146;17.162;2023-10-08T06:46:18;100577.06;;;10.15;90.36
38806;BME280;25635;51.146;17.162;2023-10-08T06:48:47;100580.02;;;10.18;90.16
38806;BME280;25635;51.146;17.162;2023-10-08T06:51:15;100585.42;;;10.24;90.66
38806;BME280;25635;51.146;17.162;2023-10-08T06:53:46;100593.44;;;10.29;90.43
38806;BME280;25635;51.146;17.162;2023-10-08T06:56:16;100597.80;;;10.35;89.43
38806;BME280;25635;51.146;17.162;2023-10-08T06:58:43;100604.10;;;10.39;88.29
38806;BME280;25635;51.146;17.162;2023-10-08T07:01:19;100614.20;;;10.42;88.19
38806;BME280;25635;51.146;17.162;2023-10-08T07:03:55;100621.16;;;10.46;87.77
38806;BME280;25635;51.146;17.162;2023-10-08T07:06:29;100621.85;;;10.51;87.42
38806;BME280;25635;51.146;17.162;2023-10-08T07:09:01;100626.55;;;10.57;87.56
38806;BME280;25635;51.146;17.162;2023-10-08T07:11:34;100632.13;;;10.68;87.22
38806;BME280;25635;51.146;17.162;2023-10-08T07:14:04;100636.48;;;10.78;87.79
38806;BME280;25635;51.146;17.162;2023-10-08T07:16:33;100637.31;;;10.88;88.07
38806;BME280;25635;51.146;17.162;2023-10-08T07:19:00;100650.39;;;10.98;84.80
38806;BME280;25635;51.146;17.162;2023-10-08T07:21:41;100661.20;;;11.02;83.58
38806;BME280;25635;51.146;17.162;2023-10-08T07:24:12;100665.38;;;11.03;83.69
38806;BME280;25635;51.146;17.162;2023-10-08T07:26:44;100673.21;;;11.06;83.34
38806;BME280;25635;51.146;17.162;2023-10-08T07:29:14;100671.45;;;11.11;82.75
38806;BME280;25635;51.146;17.162;2023-10-08T07:31:46;100665.69;;;11.14;82.65
38806;BME280;25635;51.146;17.162;2023-10-08T07:34:15;100666.73;;;11.20;83.97
38806;BME280;25635;51.146;17.162;2023-10-08T07:36:45;100673.34;;;11.25;83.05
38806;BME280;25635;51.146;17.162;2023-10-08T07:39:13;100680.49;;;11.22;82.03
38806;BME280;25635;51.146;17.162;2023-10-08T07:42:02;100691.36;;;11.11;80.06
38806;BME280;25635;51.146;17.162;2023-10-08T07:44:31;100691.91;;;10.96;79.82
38806;BME280;25635;51.146;17.162;2023-10-08T07:46:57;100697.33;;;10.83;78.47
38806;BME280;25635;51.146;17.162;2023-10-08T07:49:24;100700.13;;;10.73;79.24
38806;BME280;25635;51.146;17.162;2023-10-08T07:51:56;100706.94;;;10.68;77.13
38806;BME280;25635;51.146;17.162;2023-10-08T07:54:25;100708.16;;;10.65;78.55
38806;BME280;25635;51.146;17.162;2023-10-08T07:56:54;100710.25;;;10.67;79.51
38806;BME280;25635;51.146;17.162;2023-10-08T07:59:38;100707.98;;;10.70;79.54
38806;BME280;25635;51.146;17.162;2023-10-08T08:02:09;100712.52;;;10.76;80.35
38806;BME280;25635;51.146;17.162;2023-10-08T08:04:42;100713.55;;;10.81;79.48
38806;BME280;25635;51.146;17.162;2023-10-08T08:07:13;100717.04;;;10.85;77.28
38806;BME280;25635;51.146;17.162;2023-10-08T08:09:52;100716.86;;;10.88;77.21
38806;BME280;25635;51.146;17.162;2023-10-08T08:12:24;100721.73;;;10.94;77.78
38806;BME280;25635;51.146;17.162;2023-10-08T08:14:52;100731.16;;;11.00;77.83
38806;BME280;25635;51.146;17.162;2023-10-08T08:17:18;100732.71;;;11.07;77.65
38806;BME280;25635;51.146;17.162;2023-10-08T08:19:49;100732.36;;;11.14;77.26
38806;BME280;25635;51.146;17.162;2023-10-08T08:22:20;100735.30;;;11.23;76.68
38806;BME280;25635;51.146;17.162;2023-10-08T08:24:48;100743.48;;;11.35;77.50
38806;BME280;25635;51.146;17.162;2023-10-08T08:27:21;100745.01;;;11.51;77.95
38806;BME280;25635;51.146;17.162;2023-10-08T08:29:53;100748.79;;;11.68;77.36
38806;BME280;25635;51.146;17.162;2023-10-08T08:32:22;100754.88;;;11.76;74.83
38806;BME280;25635;51.146;17.162;2023-10-08T08:34:49;100759.59;;;11.77;72.43
38806;BME280;25635;51.146;17.162;2023-10-08T08:37:19;100763.64;;;11.68;70.33
38806;BME280;25635;51.146;17.162;2023-10-08T08:39:48;100766.28;;;11.61;70.95
38806;BME280;25635;51.146;17.162;2023-10-08T08:42:18;100771.15;;;11.63;71.40
38806;BME280;25635;51.146;17.162;2023-10-08T08:44:47;100780.93;;;11.70;71.50
38806;BME280;25635;51.146;17.162;2023-10-08T08:47:20;100786.14;;;11.77;71.17
38806;BME280;25635;51.146;17.162;2023-10-08T08:49:50;100785.42;;;11.83;69.44
38806;BME280;25635;51.146;17.162;2023-10-08T08:52:21;100783.85;;;11.85;68.88
38806;BME280;25635;51.146;17.162;2023-10-08T08:54:48;100785.25;;;11.88;69.58
38806;BME280;25635;51.146;17.162;2023-10-08T08:57:15;100790.66;;;11.93;69.15
38806;BME280;25635;51.146;17.162;2023-10-08T08:59:57;100791.35;;;11.97;67.60
38806;BME280;25635;51.146;17.162;2023-10-08T09:02:24;100793.60;;;12.02;68.22
38806;BME280;25635;51.146;17.162;2023-10-08T09:04:50;100791.98;;;12.07;68.50
38806;BME280;25635;51.146;17.162;2023-10-08T09:07:20;100788.98;;;12.13;68.88
38806;BME280;25635;51.146;17.162;2023-10-08T09:09:49;100794.20;;;12.21;66.06
38806;BME280;25635;51.146;17.162;2023-10-08T09:12:18;100794.35;;;12.24;67.73
38806;BME280;25635;51.146;17.162;2023-10-08T09:14:46;100789.92;;;12.35;67.91
38806;BME280;25635;51.146;17.162;2023-10-08T09:17:16;100793.70;;;12.47;68.02
38806;BME280;25635;51.146;17.162;2023-10-08T09:19:42;100800.30;;;12.54;64.69
38806;BME280;25635;51.146;17.162;2023-10-08T09:22:11;100802.91;;;12.56;64.06
38806;BME280;25635;51.146;17.162;2023-10-08T09:24:40;100808.46;;;12.63;64.28
38806;BME280;25635;51.146;17.162;2023-10-08T09:27:10;100811.74;;;12.69;60.93
38806;BME280;25635;51.146;17.162;2023-10-08T09:29:46;100817.71;;;12.65;59.55
38806;BME280;25635;51.146;17.162;2023-10-08T09:32:12;100822.80;;;12.63;57.94
38806;BME280;25635;51.146;17.162;2023-10-08T09:34:49;100830.16;;;12.60;59.57
38806;BME280;25635;51.146;17.162;2023-10-08T09:37:19;100840.13;;;12.62;59.65
38806;BME280;25635;51.146;17.162;2023-10-08T09:39:49;100851.12;;;12.66;60.63
38806;BME280;25635;51.146;17.162;2023-10-08T09:42:17;100857.56;;;12.71;60.47
38806;BME280;25635;51.146;17.162;2023-10-08T09:44:48;100858.95;;;12.74;60.19
38806;BME280;25635;51.146;17.162;2023-10-08T09:47:21;100858.53;;;12.83;60.08
38806;BME280;25635;51.146;17.162;2023-10-08T09:49:55;100864.63;;;12.90;59.33
38806;BME280;25635;51.146;17.162;2023-10-08T09:52:32;100865.48;;;12.92;59.07
38806;BME280;25635;51.146;17.162;2023-10-08T09:55:00;100870.35;;;12.95;59.20
38806;BME280;25635;51.146;17.162;2023-10-08T09:57:29;100873.47;;;13.01;60.99
38806;BME280;25635;51.146;17.162;2023-10-08T09:59:55;100876.88;;;13.13;60.05
38806;BME280;25635;51.146;17.162;2023-10-08T10:02:23;100884.89;;;13.17;57.06
38806;BME280;25635;51.146;17.162;2023-10-08T10:04:55;100882.64;;;13.16;59.14
38806;BME280;25635;51.146;17.162;2023-10-08T10:07:21;100881.21;;;13.17;59.04
38806;BME280;25635;51.146;17.162;2023-10-08T10:09:51;100887.64;;;13.25;59.54
38806;BME280;25635;51.146;17.162;2023-10-08T10:12:27;100889.89;;;13.33;58.94
38806;BME280;25635;51.146;17.162;2023-10-08T10:14:55;100891.77;;;13.39;57.32
38806;BME280;25635;51.146;17.162;2023-10-08T10:17:25;100886.11;;;13.43;57.89
38806;BME280;25635;51.146;17.162;2023-10-08T10:19:55;100886.79;;;13.47;56.89
38806;BME280;25635;51.146;17.162;2023-10-08T10:22:32;100886.59;;;13.49;57.60
38806;BME280;25635;51.146;17.162;2023-10-08T10:24:59;100893.39;;;13.52;56.03
38806;BME280;25635;51.146;17.162;2023-10-08T10:27:30;100896.23;;;13.50;54.72
38806;BME280;25635;51.146;17.162;2023-10-08T10:30:04;100892.36;;;13.51;55.08
38806;BME280;25635;51.146;17.162;2023-10-08T10:32:38;100890.39;;;13.55;55.74
38806;BME280;25635;51.146;17.162;2023-10-08T10:35:05;100892.58;;;13.65;56.78
38806;BME280;25635;51.146;17.162;2023-10-08T10:37:32;100896.71;;;13.72;55.96
38806;BME280;25635;51.146;17.162;2023-10-08T10:40:08;100898.73;;;13.80;55.36
38806;BME280;25635;51.146;17.162;2023-10-08T10:42:39;100901.86;;;13.84;54.84
38806;BME280;25635;51.146;17.162;2023-10-08T10:45:14;100900.90;;;13.92;56.77
38806;BME280;25635;51.146;17.162;2023-10-08T10:48:04;100902.67;;;14.06;55.64
38806;BME280;25635;51.146;17.162;2023-10-08T10:50:49;100898.06;;;14.10;53.41
38806;BME280;25635;51.146;17.162;2023-10-08T10:53:38;100902.98;;;14.09;53.88
38806;BME280;25635;51.146;17.162;2023-10-08T10:56:14;100904.04;;;14.10;52.76
38806;BME280;25635;51.146;17.162;2023-10-08T10:59:02;100905.30;;;14.07;52.59
38806;BME280;25635;51.146;17.162;2023-10-08T11:01:48;100902.95;;;14.11;53.76
38806;BME280;25635;51.146;17.162;2023-10-08T11:04:19;100912.11;;;14.24;54.24
38806;BME280;25635;51.146;17.162;2023-10-08T11:06:47;100909.90;;;14.33;53.09
38806;BME280;25635;51.146;17.162;2023-10-08T11:09:25;100909.21;;;14.32;52.69
38806;BME280;25635;51.146;17.162;2023-10-08T11:12:10;100910.40;;;14.35;53.15
38806;BME280;25635;51.146;17.162;2023-10-08T11:14:39;100902.89;;;14.46;54.49
38806;BME280;25635;51.146;17.162;2023-10-08T11:17:13;100909.60;;;14.59;53.91
38806;BME280;25635;51.146;17.162;2023-10-08T11:19:42;100908.80;;;14.67;52.14
38806;BME280;25635;51.146;17.162;2023-10-08T11:22:15;100906.58;;;14.63;50.88
38806;BME280;25635;51.146;17.162;2023-10-08T11:24:45;100908.79;;;14.52;48.81
38806;BME280;25635;51.146;17.162;2023-10-08T11:27:16;100908.51;;;14.46;50.15
38806;BME280;25635;51.146;17.162;2023-10-08T11:29:49;100906.41;;;14.46;51.10
38806;BME280;25635;51.146;17.162;2023-10-08T11:32:23;100907.66;;;14.44;50.28
38806;BME280;25635;51.146;17.162;2023-10-08T11:34:56;100909.23;;;14.44;51.24
38806;BME280;25635;51.146;17.162;2023-10-08T11:37:29;100909.92;;;14.46;50.63
38806;BME280;25635;51.146;17.162;2023-10-08T11:39:56;100904.58;;;14.53;52.02
38806;BME280;25635;51.146;17.162;2023-10-08T11:42:25;100903.80;;;14.60;50.02
38806;BME280;25635;51.146;17.162;2023-10-08T11:45:07;100901.75;;;14.54;50.14
38806;BME280;25635;51.146;17.162;2023-10-08T11:47:55;100906.45;;;14.42;49.36
38806;BME280;25635;51.146;17.162;2023-10-08T11:50:25;100906.15;;;14.38;50.08
38806;BME280;25635;51.146;17.162;2023-10-08T11:53:01;100908.05;;;14.41;49.25
38806;BME280;25635;51.146;17.162;2023-10-08T11:55:33;100905.42;;;14.40;49.36
38806;BME280;25635;51.146;17.162;2023-10-08T11:58:03;100902.31;;;14.36;48.99
38806;BME280;25635;51.146;17.162;2023-10-08T12:00:40;100900.98;;;14.31;48.50
38806;BME280;25635;51.146;17.162;2023-10-08T12:03:18;100901.16;;;14.29;49.13
38806;BME280;25635;51.146;17.162;2023-10-08T12:05:45;100902.04;;;14.30;49.71
38806;BME280;25635;51.146;17.162;2023-10-08T12:08:15;100904.67;;;14.30;48.69
38806;BME280;25635;51.146;17.162;2023-10-08T12:10:45;100900.59;;;14.34;50.19
38806;BME280;25635;51.146;17.162;2023-10-08T12:13:12;100896.82;;;14.41;49.38
38806;BME280;25635;51.146;17.162;2023-10-08T12:15:39;100899.92;;;14.45;49.96
38806;BME280;25635;51.146;17.162;2023-10-08T12:18:07;100902.81;;;14.53;50.41
38806;BME280;25635;51.146;17.162;2023-10-08T12:20:52;100905.00;;;14.62;49.95
38806;BME280;25635;51.146;17.162;2023-10-08T12:23:19;100906.23;;;14.63;48.07
38806;BME280;25635;51.146;17.162;2023-10-08T12:25:55;100903.88;;;14.53;47.25
38806;BME280;25635;51.146;17.162;2023-10-08T12:28:26;100905.40;;;14.43;48.17
38806;BME280;25635;51.146;17.162;2023-10-08T12:30:53;100904.10;;;14.48;49.38
38806;BME280;25635;51.146;17.162;2023-10-08T12:33:23;100903.30;;;14.58;49.46
38806;BME280;25635;51.146;17.162;2023-10-08T12:35:52;100901.93;;;14.68;49.36
38806;BME280;25635;51.146;17.162;2023-10-08T12:38:19;100903.40;;;14.76;49.36
38806;BME280;25635;51.146;17.162;2023-10-08T12:40:52;100904.23;;;14.79;49.34
38806;BME280;25635;51.146;17.162;2023-10-08T12:43:22;100910.09;;;14.87;49.81
38806;BME280;25635;51.146;17.162;2023-10-08T12:45:53;100916.48;;;14.94;48.55
38806;BME280;25635;51.146;17.162;2023-10-08T12:48:24;100917.36;;;14.95;46.80
38806;BME280;25635;51.146;17.162;2023-10-08T12:50:52;100911.96;;;14.91;48.06
38806;BME280;25635;51.146;17.162;2023-10-08T12:53:31;100911.23;;;14.93;47.79
38806;BME280;25635;51.146;17.162;2023-10-08T12:56:06;100911.91;;;14.95;48.56
38806;BME280;25635;51.146;17.162;2023-10-08T12:58:35;100916.84;;;14.95;47.97
38806;BME280;25635;51.146;17.162;2023-10-08T13:01:07;100918.00;;;14.87;47.16
38806;BME280;25635;51.146;17.162;2023-10-08T13:03:36;100918.15;;;14.76;46.66
38806;BME280;25635;51.146;17.162;2023-10-08T13:06:09;100915.23;;;14.57;46.68
38806;BME280;25635;51.146;17.162;2023-10-08T13:08:41;100914.08;;;14.50;48.04
38806;BME280;25635;51.146;17.162;2023-10-08T13:11:07;100913.15;;;14.40;47.33